createdAt,value
2023-02-13T00:00:56.236Z,16.80
2023-02-13T00:03:23.872Z,19.80
2023-02-13T00:05:51.382Z,19.50
2023-02-13T00:08:18.902Z,17.37
2023-02-13T00:10:47.758Z,20.53
2023-02-13T00:13:15.291Z,17.37
2023-02-13T00:15:42.763Z,18.53
2023-02-13T00:18:10.233Z,19.67
2023-02-13T00:20:37.809Z,19.53
2023-02-13T00:23:05.275Z,17.50
2023-02-13T00:25:32.634Z,16.47
2023-02-13T00:28:00.100Z,14.83
2023-02-13T00:30:27.660Z,15.67
2023-02-13T00:32:55.053Z,17.30
2023-02-13T00:35:22.468Z,16.43
2023-02-13T00:37:49.920Z,18.40
2023-02-13T00:40:17.479Z,15.67
2023-02-13T00:42:44.908Z,14.60
2023-02-13T00:45:12.381Z,17.67
2023-02-13T00:47:39.755Z,14.00
2023-02-13T00:50:07.673Z,14.43
2023-02-13T00:52:35.157Z,15.30
2023-02-13T00:55:02.625Z,17.20
2023-02-13T00:57:31.967Z,14.17
2023-02-13T00:59:59.748Z,15.70
2023-02-13T01:02:27.386Z,14.73
2023-02-13T01:04:54.847Z,15.33
2023-02-13T01:07:22.317Z,13.47
2023-02-13T01:09:49.761Z,12.33
2023-02-13T01:12:17.203Z,13.97
2023-02-13T01:14:44.642Z,13.67
2023-02-13T01:17:12.034Z,15.80
2023-02-13T01:19:41.624Z,14.83
2023-02-13T01:22:09.478Z,12.10
2023-02-13T01:24:36.934Z,11.97
2023-02-13T01:27:04.538Z,13.63
2023-02-13T01:29:32.109Z,13.60
2023-02-13T01:31:59.916Z,11.43
2023-02-13T01:34:27.390Z,12.53
2023-02-13T01:36:54.874Z,12.57
2023-02-13T01:39:22.229Z,14.17
2023-02-13T01:41:50.518Z,14.57
2023-02-13T01:44:54.032Z,10.67
2023-02-13T01:47:41.347Z,11.67
2023-02-13T01:50:42.675Z,11.93
2023-02-13T01:53:21.247Z,13.40
2023-02-13T01:55:56.324Z,14.17
2023-02-13T01:58:28.489Z,13.00
2023-02-13T02:00:57.659Z,11.97
2023-02-13T02:03:36.002Z,12.40
2023-02-13T02:06:03.852Z,12.10
2023-02-13T02:08:32.355Z,11.77
2023-02-13T02:11:12.267Z,12.60
2023-02-13T02:13:39.805Z,11.53
2023-02-13T02:16:08.041Z,10.97
2023-02-13T02:18:35.419Z,11.20
2023-02-13T02:21:27.017Z,11.40
2023-02-13T02:24:12.435Z,13.63
2023-02-13T02:26:51.598Z,12.00
2023-02-13T02:29:25.052Z,11.80
2023-02-13T02:32:21.822Z,11.30
2023-02-13T02:34:51.806Z,10.40
2023-02-13T02:37:32.119Z,10.57
2023-02-13T02:40:55.731Z,12.63
2023-02-13T02:43:44.862Z,10.17
2023-02-13T02:46:38.477Z,12.23
2023-02-13T02:49:33.142Z,11.43
2023-02-13T02:52:49.269Z,9.63
2023-02-13T02:55:24.438Z,9.00
2023-02-13T02:58:44.394Z,10.43
2023-02-13T03:01:36.214Z,13.10
2023-02-13T03:04:23.626Z,11.57
2023-02-13T03:06:59.723Z,12.07
2023-02-13T03:09:56.467Z,13.10
2023-02-13T03:12:48.381Z,11.00
2023-02-13T03:15:15.935Z,11.80
2023-02-13T03:18:02.828Z,10.47
2023-02-13T03:21:00.480Z,12.30
2023-02-13T03:24:26.991Z,10.90
2023-02-13T03:27:09.772Z,11.10
2023-02-13T03:30:11.880Z,10.10
2023-02-13T03:32:52.383Z,10.70
2023-02-13T03:36:08.231Z,12.67
2023-02-13T03:39:03.016Z,11.03
2023-02-13T03:42:30.148Z,14.17
2023-02-13T03:45:26.469Z,10.03
2023-02-13T03:47:59.263Z,11.20
2023-02-13T03:50:28.492Z,15.20
2023-02-13T03:53:06.740Z,12.30
2023-02-13T03:56:00.170Z,14.03
2023-02-13T03:58:55.123Z,13.60
2023-02-13T04:01:28.000Z,11.27
2023-02-13T04:04:22.479Z,14.23
2023-02-13T04:07:03.582Z,13.13
2023-02-13T04:09:35.518Z,12.27
2023-02-13T04:12:08.811Z,12.43
2023-02-13T04:15:02.680Z,13.33
2023-02-13T04:17:59.601Z,12.40
2023-02-13T04:20:32.677Z,13.97
2023-02-13T04:23:09.969Z,14.60
2023-02-13T04:25:41.136Z,12.87
2023-02-13T04:28:08.621Z,16.77
2023-02-13T04:30:36.245Z,13.97
2023-02-13T04:33:03.721Z,15.37
2023-02-13T04:35:31.285Z,16.23
2023-02-13T04:37:58.799Z,17.07
2023-02-13T04:40:26.256Z,14.60
2023-02-13T04:42:53.638Z,18.57
2023-02-13T04:45:21.150Z,16.13
2023-02-13T04:47:55.934Z,16.67
2023-02-13T04:50:24.447Z,14.30
2023-02-13T04:52:57.635Z,18.07
2023-02-13T04:55:27.418Z,17.47
2023-02-13T04:57:56.171Z,14.50
2023-02-13T05:00:26.469Z,15.73
2023-02-13T05:02:54.394Z,15.47
2023-02-13T05:05:22.118Z,16.07
2023-02-13T05:07:49.558Z,13.77
2023-02-13T05:10:17.222Z,16.97
2023-02-13T05:12:44.654Z,17.20
2023-02-13T05:15:12.260Z,16.90
2023-02-13T05:17:39.777Z,17.17
2023-02-13T05:20:08.101Z,16.87
2023-02-13T05:22:54.149Z,15.07
2023-02-13T05:25:21.700Z,14.00
2023-02-13T05:27:49.078Z,12.33
2023-02-13T05:30:16.552Z,12.67
2023-02-13T05:32:44.080Z,13.67
2023-02-13T05:35:11.636Z,13.03
2023-02-13T05:37:39.097Z,14.00
2023-02-13T05:40:07.504Z,14.43
2023-02-13T05:42:35.066Z,14.40
2023-02-13T05:45:02.503Z,16.10
2023-02-13T05:47:29.943Z,19.63
2023-02-13T05:49:57.358Z,17.93
2023-02-13T05:52:24.840Z,18.43
2023-02-13T05:54:53.158Z,21.67
2023-02-13T05:57:20.608Z,25.10
2023-02-13T05:59:48.006Z,19.33
2023-02-13T06:02:15.476Z,20.50
2023-02-13T06:04:42.983Z,23.70
2023-02-13T06:07:10.401Z,19.27
2023-02-13T06:09:37.833Z,19.70
2023-02-13T06:12:05.595Z,18.23
2023-02-13T06:14:33.018Z,20.40
2023-02-13T06:17:02.097Z,22.00
2023-02-13T06:19:29.802Z,24.63
2023-02-13T06:21:57.272Z,25.80
2023-02-13T06:24:24.723Z,31.90
2023-02-13T06:26:52.345Z,22.50
2023-02-13T06:29:19.881Z,42.00
2023-02-13T06:31:47.359Z,29.70
2023-02-13T06:34:14.862Z,37.70
2023-02-13T06:36:42.910Z,38.97
2023-02-13T06:39:11.469Z,32.50
2023-02-13T06:41:38.901Z,52.20
2023-02-13T06:44:07.348Z,25.73
2023-02-13T06:46:34.821Z,59.23
2023-02-13T06:49:02.298Z,41.83
2023-02-13T06:51:29.720Z,30.50
2023-02-13T06:53:57.132Z,44.67
2023-02-13T06:56:26.545Z,38.80
2023-02-13T06:58:54.005Z,46.27
2023-02-13T07:01:21.492Z,33.70
2023-02-13T07:03:48.957Z,43.90
2023-02-13T07:06:20.907Z,64.03
2023-02-13T07:08:51.530Z,36.63
2023-02-13T07:11:20.491Z,39.70
2023-02-13T07:13:47.898Z,34.73
2023-02-13T07:16:15.684Z,69.00
2023-02-13T07:18:43.135Z,47.40
2023-02-13T07:21:10.731Z,53.23
2023-02-13T07:23:38.225Z,54.97
2023-02-13T07:26:06.028Z,45.10
2023-02-13T07:28:33.603Z,61.03
2023-02-13T07:31:06.265Z,39.50
2023-02-13T07:33:35.247Z,60.30
2023-02-13T07:36:03.797Z,59.57
2023-02-13T07:38:32.162Z,52.87
2023-02-13T07:41:01.294Z,57.57
2023-02-13T07:43:30.391Z,46.93
2023-02-13T07:46:03.048Z,40.70
2023-02-13T07:48:31.806Z,25.17
2023-02-13T07:51:05.120Z,36.33
2023-02-13T07:53:33.015Z,38.80
2023-02-13T07:56:00.480Z,21.73
2023-02-13T07:58:27.873Z,17.93
2023-02-13T08:00:55.387Z,18.20
2023-02-13T08:03:22.842Z,19.37
2023-02-13T08:05:50.346Z,19.53
2023-02-13T08:08:18.004Z,18.23
2023-02-13T08:11:03.882Z,25.93
2023-02-13T08:13:32.796Z,22.33
2023-02-13T08:16:00.375Z,20.00
2023-02-13T08:18:27.853Z,18.17
2023-02-13T08:20:55.223Z,20.00
2023-02-13T08:23:22.790Z,19.53
2023-02-13T08:25:50.257Z,20.97
2023-02-13T08:28:18.141Z,21.13
2023-02-13T08:30:45.671Z,19.90
2023-02-13T08:33:13.122Z,24.17
2023-02-13T08:35:40.554Z,22.93
2023-02-13T08:38:07.985Z,22.50
2023-02-13T08:40:35.636Z,21.30
2023-02-13T08:43:05.986Z,18.27
2023-02-13T08:45:34.449Z,17.60
2023-02-13T08:48:04.216Z,17.13
2023-02-13T08:50:32.141Z,16.57
2023-02-13T08:53:00.130Z,14.37
2023-02-13T08:55:30.049Z,15.27
2023-02-13T08:58:03.989Z,11.73
2023-02-13T09:00:32.016Z,12.73
2023-02-13T09:03:04.341Z,9.63
2023-02-13T09:05:32.978Z,4.97
2023-02-13T09:08:03.886Z,4.20
2023-02-13T09:10:33.056Z,5.47
2023-02-13T09:13:01.468Z,4.57
2023-02-13T09:15:28.892Z,3.67
2023-02-13T09:17:56.349Z,5.43
2023-02-13T09:20:24.033Z,4.80
2023-02-13T09:22:51.580Z,5.97
2023-02-13T09:25:20.529Z,5.60
2023-02-13T09:27:48.032Z,5.00
2023-02-13T09:30:23.338Z,5.83
2023-02-13T09:32:55.379Z,6.73
2023-02-13T09:35:24.332Z,4.87
2023-02-13T09:37:51.898Z,5.37
2023-02-13T09:40:32.791Z,4.80
2023-02-13T09:43:31.335Z,5.43
2023-02-13T09:46:14.235Z,6.67
2023-02-13T09:48:55.295Z,8.33
2023-02-13T09:51:25.945Z,4.43
2023-02-13T09:54:02.272Z,6.33
2023-02-13T09:57:10.204Z,7.00
2023-02-13T09:59:51.017Z,5.03
2023-02-13T10:02:33.174Z,7.30
2023-02-13T10:05:58.512Z,6.07
2023-02-13T10:08:57.413Z,7.83
2023-02-13T10:11:57.317Z,6.27
2023-02-13T10:14:40.435Z,4.70
2023-02-13T10:17:36.688Z,5.50
2023-02-13T10:20:36.765Z,6.67
2023-02-13T10:23:13.110Z,5.77
2023-02-13T10:26:15.427Z,3.57
2023-02-13T10:29:15.489Z,4.43
2023-02-13T10:31:47.364Z,4.57
2023-02-13T10:34:21.819Z,5.37
2023-02-13T10:36:49.237Z,3.03
2023-02-13T10:39:30.086Z,4.00
2023-02-13T10:42:31.133Z,3.50
2023-02-13T10:45:13.603Z,6.07
2023-02-13T10:48:26.899Z,6.73
2023-02-13T10:51:44.429Z,6.93
2023-02-13T10:54:25.686Z,4.03
2023-02-13T10:57:36.579Z,5.17
2023-02-13T11:00:19.086Z,5.33
2023-02-13T11:02:46.717Z,3.70
2023-02-13T11:05:22.366Z,4.83
2023-02-13T11:07:50.798Z,5.33
2023-02-13T11:10:25.546Z,5.63
2023-02-13T11:12:55.398Z,6.23
2023-02-13T11:15:29.892Z,4.90
2023-02-13T11:18:26.686Z,4.93
2023-02-13T11:21:14.159Z,5.53
2023-02-13T11:23:49.590Z,4.23
2023-02-13T11:26:32.126Z,5.23
2023-02-13T11:29:25.184Z,4.43
2023-02-13T11:32:16.137Z,3.47
2023-02-13T11:34:43.892Z,3.47
2023-02-13T11:37:14.283Z,7.23
2023-02-13T11:39:44.851Z,4.20
2023-02-13T11:42:37.432Z,3.30
2023-02-13T11:45:05.008Z,4.00
2023-02-13T11:47:43.491Z,4.07
2023-02-13T11:50:37.940Z,4.00
2023-02-13T11:53:14.752Z,4.60
2023-02-13T11:55:45.032Z,5.10
2023-02-13T11:58:15.915Z,4.20
2023-02-13T12:00:44.169Z,7.10
2023-02-13T12:03:20.484Z,4.90
2023-02-13T12:06:18.669Z,6.63
2023-02-13T12:08:49.689Z,10.43
2023-02-13T12:11:22.793Z,7.00
2023-02-13T12:13:51.930Z,6.73
2023-02-13T12:16:40.730Z,11.63
2023-02-13T12:19:34.196Z,24.13
2023-02-13T12:22:28.855Z,8.00
2023-02-13T12:25:02.372Z,10.10
2023-02-13T12:28:02.962Z,5.00
2023-02-13T12:30:48.230Z,4.73
2023-02-13T12:33:40.086Z,4.00
2023-02-13T12:36:14.693Z,4.00
2023-02-13T12:39:15.118Z,4.40
2023-02-13T12:41:51.533Z,4.10
2023-02-13T12:44:52.758Z,6.53
2023-02-13T12:47:40.437Z,6.23
2023-02-13T12:50:13.840Z,7.10
2023-02-13T12:52:59.802Z,4.00
2023-02-13T12:55:40.636Z,5.13
2023-02-13T12:58:32.091Z,4.37
2023-02-13T13:01:26.661Z,4.53
2023-02-13T13:04:20.255Z,4.20
2023-02-13T13:07:18.849Z,4.40
2023-02-13T13:10:00.404Z,4.93
2023-02-13T13:12:58.657Z,5.80
2023-02-13T13:15:35.709Z,4.23
2023-02-13T13:18:10.939Z,4.27
2023-02-13T13:20:58.602Z,4.50
2023-02-13T13:23:41.601Z,3.87
2023-02-13T13:26:27.683Z,4.97
2023-02-13T13:28:58.865Z,5.37
2023-02-13T13:31:28.702Z,5.40
2023-02-13T13:34:02.780Z,5.57
2023-02-13T13:36:57.077Z,8.73
2023-02-13T13:39:40.666Z,5.57
2023-02-13T13:42:39.321Z,5.67
2023-02-13T13:45:21.329Z,5.77
2023-02-13T13:48:35.626Z,6.00
2023-02-13T13:51:06.944Z,5.40
2023-02-13T13:53:34.430Z,5.23
2023-02-13T13:56:08.796Z,5.23
2023-02-13T13:58:49.708Z,5.07
2023-02-13T14:01:23.535Z,4.60
2023-02-13T14:04:04.834Z,4.83
2023-02-13T14:06:59.667Z,6.43
2023-02-13T14:09:26.997Z,5.23
2023-02-13T14:11:56.962Z,5.07
2023-02-13T14:14:30.858Z,5.40
2023-02-13T14:17:04.243Z,5.70
2023-02-13T14:19:37.968Z,4.70
2023-02-13T14:22:20.898Z,6.53
2023-02-13T14:25:00.845Z,5.83
2023-02-13T14:27:39.747Z,5.90
2023-02-13T14:30:29.739Z,5.93
2023-02-13T14:33:01.973Z,4.77
2023-02-13T14:35:34.178Z,5.33
2023-02-13T14:38:05.698Z,6.37
2023-02-13T14:40:52.232Z,5.83
2023-02-13T14:43:50.444Z,5.03
2023-02-13T14:46:36.102Z,5.40
2023-02-13T14:49:14.461Z,5.93
2023-02-13T14:51:48.796Z,4.63
2023-02-13T14:54:45.977Z,5.03
2023-02-13T14:57:44.592Z,4.27
2023-02-13T15:00:42.874Z,5.20
2023-02-13T15:03:54.809Z,5.13
2023-02-13T15:06:33.299Z,4.70
2023-02-13T15:09:06.477Z,4.30
2023-02-13T15:11:43.291Z,4.43
2023-02-13T15:14:37.143Z,4.67
2023-02-13T15:17:38.469Z,5.40
2023-02-13T15:20:25.382Z,5.73
2023-02-13T15:22:53.906Z,6.00
2023-02-13T15:25:40.491Z,6.57
2023-02-13T15:28:24.068Z,5.53
2023-02-13T15:31:05.639Z,5.97
2023-02-13T15:33:50.589Z,5.47
2023-02-13T15:36:28.607Z,5.80
2023-02-13T15:39:10.465Z,4.93
2023-02-13T15:41:50.310Z,4.70
2023-02-13T15:44:24.254Z,4.47
2023-02-13T15:46:54.182Z,3.90
2023-02-13T15:49:25.484Z,4.73
2023-02-13T15:52:08.665Z,4.63
2023-02-13T15:54:36.241Z,4.50
2023-02-13T15:57:07.393Z,4.47
2023-02-13T15:59:38.926Z,5.23
2023-02-13T16:02:21.328Z,3.93
2023-02-13T16:04:53.455Z,4.10
2023-02-13T16:07:20.983Z,4.63
2023-02-13T16:09:48.862Z,4.17
2023-02-13T16:12:25.849Z,5.17
2023-02-13T16:15:06.177Z,3.50
2023-02-13T16:17:39.052Z,4.93
2023-02-13T16:20:07.422Z,4.00
2023-02-13T16:22:38.485Z,3.60
2023-02-13T16:25:14.527Z,3.73
2023-02-13T16:27:53.565Z,4.33
2023-02-13T16:30:41.682Z,4.27
2023-02-13T16:33:16.362Z,3.73
2023-02-13T16:35:49.391Z,4.70
2023-02-13T16:38:47.726Z,3.70
2023-02-13T16:41:18.239Z,4.67
2023-02-13T16:43:54.146Z,4.90
2023-02-13T16:46:27.388Z,4.37
2023-02-13T16:48:57.972Z,4.60
2023-02-13T16:51:40.718Z,5.00
2023-02-13T16:54:11.314Z,4.20
2023-02-13T16:56:42.174Z,4.80
2023-02-13T16:59:29.794Z,5.60
2023-02-13T17:02:25.277Z,6.10
2023-02-13T17:05:09.574Z,6.73
2023-02-13T17:07:41.784Z,7.00
2023-02-13T17:10:29.105Z,7.07
2023-02-13T17:13:19.119Z,5.80
2023-02-13T17:15:48.611Z,7.37
2023-02-13T17:18:16.309Z,6.80
2023-02-13T17:20:45.310Z,7.67
2023-02-13T17:23:23.526Z,7.83
2023-02-13T17:25:53.937Z,10.03
2023-02-13T17:28:29.335Z,8.07
2023-02-13T17:30:59.209Z,7.73
2023-02-13T17:33:30.994Z,8.20
2023-02-13T17:35:58.428Z,8.90
2023-02-13T17:38:26.090Z,7.27
2023-02-13T17:40:53.535Z,9.37
2023-02-13T17:43:21.204Z,8.17
2023-02-13T17:45:50.093Z,8.43
2023-02-13T17:48:18.145Z,10.60
2023-02-13T17:50:51.352Z,9.50
2023-02-13T17:53:30.035Z,7.43
2023-02-13T17:55:57.989Z,8.67
2023-02-13T17:58:25.904Z,7.97
2023-02-13T18:00:53.642Z,7.40
2023-02-13T18:03:21.077Z,8.57
2023-02-13T18:05:50.154Z,10.30
2023-02-13T18:08:17.868Z,11.20
2023-02-13T18:10:45.234Z,13.83
2023-02-13T18:13:12.844Z,11.50
2023-02-13T18:15:43.379Z,11.73
2023-02-13T18:18:16.332Z,14.53
2023-02-13T18:20:44.630Z,11.97
2023-02-13T18:23:14.314Z,10.63
2023-02-13T18:25:41.780Z,14.27
2023-02-13T18:28:09.203Z,13.57
2023-02-13T18:30:36.708Z,11.93
2023-02-13T18:33:05.208Z,11.43
2023-02-13T18:35:34.951Z,12.90
2023-02-13T18:38:02.352Z,12.80
2023-02-13T18:40:29.871Z,12.93
2023-02-13T18:42:57.336Z,11.47
2023-02-13T18:45:24.858Z,12.27
2023-02-13T18:47:52.331Z,12.67
2023-02-13T18:50:20.614Z,13.53
2023-02-13T18:52:48.183Z,12.33
2023-02-13T18:55:15.829Z,14.10
2023-02-13T18:57:43.737Z,13.13
2023-02-13T19:00:14.179Z,14.10
2023-02-13T19:02:41.784Z,11.80
2023-02-13T19:05:09.280Z,11.70
2023-02-13T19:07:36.975Z,11.53
2023-02-13T19:10:04.868Z,12.37
2023-02-13T19:12:32.299Z,12.77
2023-02-13T19:14:59.693Z,12.97
2023-02-13T19:17:27.168Z,12.37
2023-02-13T19:19:55.842Z,12.27
2023-02-13T19:22:23.284Z,12.00
2023-02-13T19:24:50.655Z,12.77
2023-02-13T19:27:18.226Z,11.47
2023-02-13T19:29:47.190Z,12.20
2023-02-13T19:32:14.701Z,11.77
2023-02-13T19:34:42.486Z,11.30
2023-02-13T19:37:09.886Z,12.30
2023-02-13T19:39:37.358Z,10.87
2023-02-13T19:42:04.952Z,12.90
2023-02-13T19:44:32.417Z,13.43
2023-02-13T19:46:59.823Z,11.20
2023-02-13T19:49:27.280Z,12.67
2023-02-13T19:51:54.671Z,13.73
2023-02-13T19:54:22.187Z,16.57
2023-02-13T19:56:49.815Z,14.93
2023-02-13T19:59:17.247Z,15.37
2023-02-13T20:01:45.795Z,13.83
2023-02-13T20:04:13.390Z,14.23
2023-02-13T20:06:40.875Z,14.77
2023-02-13T20:09:12.910Z,14.00
2023-02-13T20:11:42.392Z,13.43
2023-02-13T20:14:15.217Z,15.17
2023-02-13T20:16:46.518Z,13.00
2023-02-13T20:19:14.396Z,12.83
2023-02-13T20:21:43.260Z,14.87
2023-02-13T20:24:12.394Z,14.63
2023-02-13T20:26:41.112Z,18.93
2023-02-13T20:29:09.526Z,15.73
2023-02-13T20:31:39.623Z,15.27
2023-02-13T20:34:07.965Z,15.63
2023-02-13T20:36:35.546Z,15.13
2023-02-13T20:39:06.933Z,14.67
2023-02-13T20:41:37.365Z,13.03
2023-02-13T20:44:10.485Z,16.37
2023-02-13T20:46:40.135Z,15.07
2023-02-13T20:49:08.271Z,16.13
2023-02-13T20:51:36.386Z,18.57
2023-02-13T20:54:05.280Z,16.40
2023-02-13T20:56:32.868Z,15.73
2023-02-13T20:59:02.664Z,14.73
2023-02-13T21:01:34.225Z,14.80
2023-02-13T21:04:02.172Z,16.43
2023-02-13T21:06:34.008Z,15.37
2023-02-13T21:09:03.471Z,16.60
2023-02-13T21:11:31.790Z,16.73
2023-02-13T21:13:59.410Z,15.53
2023-02-13T21:16:30.858Z,15.90
2023-02-13T21:19:01.443Z,15.20
2023-02-13T21:21:32.355Z,16.47
2023-02-13T21:24:08.191Z,14.90
2023-02-13T21:26:36.451Z,15.33
2023-02-13T21:29:06.055Z,15.77
2023-02-13T21:31:45.141Z,16.07
2023-02-13T21:34:13.664Z,14.57
2023-02-13T21:36:41.392Z,18.43
2023-02-13T21:39:11.122Z,18.87
2023-02-13T21:41:44.035Z,17.17
2023-02-13T21:44:16.723Z,15.50
2023-02-13T21:46:45.691Z,14.40
2023-02-13T21:49:17.157Z,17.83
2023-02-13T21:51:45.345Z,15.03
2023-02-13T21:54:13.345Z,16.27
2023-02-13T21:56:43.010Z,15.93
2023-02-13T21:59:15.726Z,16.37
2023-02-13T22:01:44.637Z,16.17
2023-02-13T22:04:12.289Z,15.33
2023-02-13T22:06:41.017Z,16.03
2023-02-13T22:09:11.845Z,14.67
2023-02-13T22:11:40.053Z,16.87
2023-02-13T22:14:16.044Z,16.27
2023-02-13T22:16:44.784Z,15.67
2023-02-13T22:19:15.812Z,13.63
2023-02-13T22:21:43.839Z,16.37
2023-02-13T22:24:11.540Z,17.90
2023-02-13T22:26:41.900Z,19.30
2023-02-13T22:29:12.381Z,19.53
2023-02-13T22:31:40.239Z,19.10
2023-02-13T22:34:08.426Z,17.23
2023-02-13T22:36:41.188Z,19.70
2023-02-13T22:39:10.989Z,17.00
2023-02-13T22:41:39.234Z,15.77
2023-02-13T22:44:06.766Z,17.97
2023-02-13T22:46:35.155Z,17.07
2023-02-13T22:49:03.273Z,16.83
2023-02-13T22:51:34.917Z,13.83
2023-02-13T22:54:02.950Z,15.07
2023-02-13T22:56:32.038Z,17.17
2023-02-13T22:59:00.408Z,14.93
2023-02-13T23:01:29.144Z,15.20
2023-02-13T23:03:57.808Z,19.03
2023-02-13T23:06:25.652Z,18.20
2023-02-13T23:08:54.048Z,15.23
2023-02-13T23:11:43.201Z,17.93
2023-02-13T23:14:13.385Z,17.20
2023-02-13T23:17:00.432Z,16.03
2023-02-13T23:19:29.988Z,15.97
2023-02-13T23:21:58.508Z,14.80
2023-02-13T23:24:26.034Z,15.20
2023-02-13T23:26:53.470Z,17.07
2023-02-13T23:29:21.102Z,16.27
2023-02-13T23:31:48.647Z,15.33
2023-02-13T23:34:16.349Z,15.73
2023-02-13T23:36:44.527Z,14.00
2023-02-13T23:39:11.971Z,18.33
2023-02-13T23:41:39.406Z,14.57
2023-02-13T23:44:06.804Z,14.20
2023-02-13T23:46:34.213Z,14.93
2023-02-13T23:49:01.710Z,15.40
2023-02-13T23:51:29.224Z,14.30
2023-02-13T23:53:57.563Z,12.67
2023-02-13T23:56:26.063Z,14.53
2023-02-13T23:58:56.433Z,15.37
